Time;durP1;ratioP1;P1;durP2;ratioP2;P2;SDS_P1;SDS_P2;PMS_P1;PMS_P2;Temp;Humidity;BMP_temperature;BMP_pressure;BME280_temperature;BME280_humidity;BME280_pressure;Samples;Min_cycle;Max_cycle;Signal;HPM_P1;HPM_P2
2023/03/23 00:01:26;;;;;;;13.65;6.28;;;;;;;;;;5011520;28;20049;-55
2023/03/23 00:03:56;;;;;;;9.50;5.18;;;;;;;;;;5015806;28;20092;-53
2023/03/23 00:06:25;;;;;;;10.30;5.35;;;;;;;;;;5015911;28;20136;-53
2023/03/23 00:08:59;;;;;;;8.25;5.57;;;;;;;;;;5015499;28;20046;-53
2023/03/23 00:11:28;;;;;;;8.55;5.47;;;;;;;;;;5015315;28;20045;-54
2023/03/23 00:14:00;;;;;;;9.27;5.27;;;;;;;;;;5016144;28;20436;-57
2023/03/23 00:16:31;;;;;;;10.52;5.97;;;;;;;;;;5016096;28;20275;-53
2023/03/23 00:18:59;;;;;;;7.80;5.18;;;;;;;;;;5015407;28;20046;-55
2023/03/23 00:21:33;;;;;;;9.55;5.38;;;;;;;;;;5015294;28;20053;-53
2023/03/23 00:24:03;;;;;;;10.40;5.47;;;;;;;;;;5015410;28;20541;-52
2023/03/23 00:26:33;;;;;;;10.60;5.72;;;;;;;;;;5015377;28;20058;-52
2023/03/23 00:29:01;;;;;;;9.35;5.30;;;;;;;;;;5015085;28;20049;-54
2023/03/23 00:31:31;;;;;;;8.52;5.10;;;;;;;;;;5014726;28;20463;-53
2023/03/23 00:34:00;;;;;;;14.63;5.13;;;;;;;;;;5015193;28;20045;-53
2023/03/23 00:36:29;;;;;;;9.02;5.57;;;;;;;;;;5015358;28;20130;-54
2023/03/23 00:38:59;;;;;;;10.30;5.70;;;;;;;;;;5014916;28;20049;-52
2023/03/23 00:41:27;;;;;;;9.30;5.50;;;;;;;;;;5014681;28;20104;-55
2023/03/23 00:43:55;;;;;;;9.85;6.00;;;;;;;;;;5015145;28;20113;-53
2023/03/23 00:46:23;;;;;;;9.32;5.63;;;;;;;;;;5014962;28;20073;-53
2023/03/23 00:48:50;;;;;;;7.88;4.70;;;;;;;;;;5014950;28;20485;-55
2023/03/23 00:51:19;;;;;;;8.25;5.18;;;;;;;;;;5014738;28;20045;-52
2023/03/23 00:53:47;;;;;;;8.23;4.90;;;;;;;;;;5015322;28;20435;-55
2023/03/23 00:56:14;;;;;;;8.80;5.15;;;;;;;;;;5014681;28;20050;-52
2023/03/23 00:58:43;;;;;;;8.75;5.50;;;;;;;;;;5015122;28;20081;-54
2023/03/23 01:01:10;;;;;;;9.07;4.80;;;;;;;;;;5014173;28;20499;-54
2023/03/23 01:03:37;;;;;;;8.63;5.03;;;;;;;;;;5015437;28;20045;-54
2023/03/23 01:06:12;;;;;;;7.45;4.47;;;;;;;;;;5014992;28;20053;-53
2023/03/23 01:08:44;;;;;;;7.68;4.85;;;;;;;;;;5015779;28;20046;-55
2023/03/23 01:11:13;;;;;;;7.38;4.43;;;;;;;;;;5014474;28;20053;-51
2023/03/23 01:13:41;;;;;;;9.35;3.90;;;;;;;;;;5013652;28;20072;-53
2023/03/23 01:16:10;;;;;;;8.18;3.70;;;;;;;;;;5014360;28;20062;-54
2023/03/23 01:18:37;;;;;;;6.30;3.40;;;;;;;;;;5014332;28;20095;-55
2023/03/23 01:21:06;;;;;;;5.50;3.17;;;;;;;;;;5014101;28;20084;-52
2023/03/23 01:23:34;;;;;;;6.78;3.10;;;;;;;;;;5014162;28;20049;-53
2023/03/23 01:26:05;;;;;;;5.57;3.00;;;;;;;;;;5014120;28;20084;-55
2023/03/23 01:28:32;;;;;;;6.38;3.28;;;;;;;;;;5014534;28;20093;-52
2023/03/23 01:31:01;;;;;;;5.25;2.95;;;;;;;;;;5013671;28;20475;-56
2023/03/23 01:33:30;;;;;;;5.30;2.80;;;;;;;;;;5014450;28;20145;-57
2023/03/23 01:35:57;;;;;;;5.68;3.10;;;;;;;;;;5014528;28;20483;-53
2023/03/23 01:38:24;;;;;;;7.47;4.13;;;;;;;;;;5013969;28;20050;-53
2023/03/23 01:40:51;;;;;;;5.72;3.30;;;;;;;;;;5014107;28;20061;-53
2023/03/23 01:43:18;;;;;;;6.20;3.22;;;;;;;;;;5014291;28;20104;-56
2023/03/23 01:45:45;;;;;;;7.13;3.50;;;;;;;;;;5013950;28;20392;-55
2023/03/23 01:48:17;;;;;;;7.38;3.88;;;;;;;;;;5013670;28;20506;-54
2023/03/23 01:50:52;;;;;;;6.97;3.85;;;;;;;;;;5013852;28;20092;-54
2023/03/23 01:53:21;;;;;;;6.43;4.05;;;;;;;;;;5013902;28;20407;-53
2023/03/23 01:55:51;;;;;;;6.97;3.92;;;;;;;;;;5013818;28;20042;-53
2023/03/23 01:58:25;;;;;;;4.95;3.13;;;;;;;;;;5013506;28;20140;-56
2023/03/23 02:00:53;;;;;;;6.60;3.83;;;;;;;;;;5013477;28;20432;-52
2023/03/23 02:03:23;;;;;;;5.82;3.17;;;;;;;;;;5013669;28;20531;-56
2023/03/23 02:05:52;;;;;;;8.03;3.30;;;;;;;;;;5013734;28;20050;-52
2023/03/23 02:08:19;;;;;;;4.35;2.67;;;;;;;;;;5013372;28;20807;-53
2023/03/23 02:10:46;;;;;;;4.82;2.80;;;;;;;;;;5013404;28;20499;-53
2023/03/23 02:13:14;;;;;;;6.03;3.35;;;;;;;;;;5013522;28;20469;-55
2023/03/23 02:15:48;;;;;;;5.30;3.30;;;;;;;;;;5013341;28;20057;-53
2023/03/23 02:18:28;;;;;;;5.95;3.25;;;;;;;;;;5013314;28;20046;-52
2023/03/23 02:21:40;;;;;;;7.28;4.85;;;;;;;;;;5013263;28;20045;-53
2023/03/23 02:24:55;;;;;;;7.53;4.40;;;;;;;;;;4994358;28;20049;-51
2023/03/23 02:27:45;;;;;;;8.02;4.68;;;;;;;;;;5013260;28;20092;-52
2023/03/23 02:30:39;;;;;;;10.02;5.90;;;;;;;;;;5012615;28;20526;-54
2023/03/23 02:33:20;;;;;;;10.13;5.70;;;;;;;;;;5009206;28;20073;-55
2023/03/23 02:35:51;;;;;;;10.15;5.47;;;;;;;;;;5013137;28;20061;-54
2023/03/23 02:38:26;;;;;;;8.57;4.82;;;;;;;;;;5013160;28;20046;-54
2023/03/23 02:40:55;;;;;;;7.45;4.20;;;;;;;;;;5012830;28;20050;-53
2023/03/23 02:43:26;;;;;;;7.45;4.75;;;;;;;;;;5013000;28;20108;-56
2023/03/23 02:45:54;;;;;;;7.45;4.57;;;;;;;;;;5012753;28;20057;-54
2023/03/23 02:48:28;;;;;;;7.68;4.68;;;;;;;;;;5012994;28;20058;-55
2023/03/23 02:50:55;;;;;;;11.10;6.13;;;;;;;;;;5012811;28;20050;-53
2023/03/23 02:53:25;;;;;;;9.63;5.22;;;;;;;;;;5012706;28;20053;-54
2023/03/23 02:55:54;;;;;;;10.30;6.00;;;;;;;;;;5012900;28;20152;-56
2023/03/23 02:58:22;;;;;;;7.95;6.13;;;;;;;;;;5012586;28;20054;-54
2023/03/23 03:00:50;;;;;;;9.27;5.60;;;;;;;;;;5011993;28;20466;-55
2023/03/23 03:03:20;;;;;;;11.52;6.13;;;;;;;;;;5012419;28;20092;-55
2023/03/23 03:06:00;;;;;;;10.60;6.95;;;;;;;;;;5012517;28;20419;-54
2023/03/23 03:08:35;;;;;;;8.48;6.30;;;;;;;;;;5012443;28;20157;-52
2023/03/23 03:11:06;;;;;;;10.68;6.18;;;;;;;;;;5012418;28;20054;-51
2023/03/23 03:13:45;;;;;;;10.98;5.75;;;;;;;;;;5012503;28;20045;-52
2023/03/23 03:16:21;;;;;;;9.48;6.00;;;;;;;;;;5012411;28;20052;-53
2023/03/23 03:18:53;;;;;;;10.70;5.22;;;;;;;;;;5012269;28;20507;-55
2023/03/23 03:21:25;;;;;;;11.35;5.65;;;;;;;;;;5012147;28;20450;-55
2023/03/23 03:23:55;;;;;;;10.57;4.82;;;;;;;;;;5012568;28;20053;-53
2023/03/23 03:26:26;;;;;;;10.32;4.00;;;;;;;;;;5012434;28;20045;-55
2023/03/23 03:28:54;;;;;;;5.85;3.10;;;;;;;;;;5012220;28;20062;-54
2023/03/23 03:31:24;;;;;;;7.43;3.55;;;;;;;;;;5011791;28;20111;-52
2023/03/23 03:33:52;;;;;;;6.20;3.28;;;;;;;;;;5012176;28;20049;-54
2023/03/23 03:36:25;;;;;;;7.60;3.47;;;;;;;;;;5011724;28;20136;-52
2023/03/23 03:38:53;;;;;;;6.38;3.40;;;;;;;;;;5012250;28;20046;-56
2023/03/23 03:41:20;;;;;;;7.28;3.92;;;;;;;;;;5012147;28;20046;-51
2023/03/23 03:43:47;;;;;;;9.90;5.05;;;;;;;;;;5012100;28;20542;-55
2023/03/23 03:46:14;;;;;;;11.70;5.95;;;;;;;;;;5012073;28;20057;-54
2023/03/23 03:48:41;;;;;;;8.60;4.80;;;;;;;;;;5012245;28;20422;-53
2023/03/23 03:51:08;;;;;;;10.00;5.22;;;;;;;;;;5011715;28;20046;-51
2023/03/23 03:53:36;;;;;;;11.25;6.40;;;;;;;;;;5012072;28;20101;-55
2023/03/23 03:56:05;;;;;;;8.20;5.43;;;;;;;;;;5011988;28;20054;-53
2023/03/23 03:58:32;;;;;;;7.50;4.47;;;;;;;;;;5012220;28;20046;-52
2023/03/23 04:01:00;;;;;;;7.70;5.05;;;;;;;;;;5011481;28;20487;-55
2023/03/23 04:03:27;;;;;;;7.47;4.65;;;;;;;;;;5011757;28;20053;-55
2023/03/23 04:05:55;;;;;;;10.50;5.55;;;;;;;;;;5012147;28;20080;-52
2023/03/23 04:08:22;;;;;;;9.75;5.13;;;;;;;;;;5011676;28;20097;-56
2023/03/23 04:10:51;;;;;;;9.15;5.22;;;;;;;;;;5011582;28;20129;-55
2023/03/23 04:13:18;;;;;;;8.57;5.55;;;;;;;;;;5012176;28;20124;-51
2023/03/23 04:15:45;;;;;;;8.48;4.70;;;;;;;;;;5011895;28;20041;-56
2023/03/23 04:18:14;;;;;;;8.20;4.65;;;;;;;;;;5011692;28;20050;-52
2023/03/23 04:20:42;;;;;;;10.27;5.65;;;;;;;;;;5012086;28;20459;-51
2023/03/23 04:23:09;;;;;;;9.00;5.30;;;;;;;;;;5011849;28;20054;-55
2023/03/23 04:25:36;;;;;;;10.60;6.10;;;;;;;;;;5011853;28;20069;-51
2023/03/23 04:28:04;;;;;;;8.73;5.22;;;;;;;;;;5011890;28;20046;-54
2023/03/23 04:30:31;;;;;;;15.15;7.22;;;;;;;;;;5010885;28;20491;-53
2023/03/23 04:33:01;;;;;;;9.18;5.53;;;;;;;;;;5011632;28;20495;-54
2023/03/23 04:35:29;;;;;;;10.18;6.07;;;;;;;;;;5011562;28;20042;-54
2023/03/23 04:37:56;;;;;;;9.30;6.07;;;;;;;;;;5011515;28;20054;-54
2023/03/23 04:40:24;;;;;;;10.77;5.50;;;;;;;;;;5011302;28;20469;-54
2023/03/23 04:42:51;;;;;;;10.43;5.72;;;;;;;;;;5000894;28;20100;-57
2023/03/23 04:45:22;;;;;;;9.25;5.53;;;;;;;;;;4991810;28;20093;-58
2023/03/23 04:47:52;;;;;;;10.02;6.05;;;;;;;;;;4992178;28;20137;-56
2023/03/23 04:50:20;;;;;;;;;;;;;;;;;;4995235;28;20050;-58
2023/03/23 04:52:47;;;;;;;8.15;5.35;;;;;;;;;;4995342;28;19922;-56
2023/03/23 04:55:14;;;;;;;8.80;5.05;;;;;;;;;;4995286;28;20050;-53
2023/03/23 04:57:41;;;;;;;11.10;5.95;;;;;;;;;;4995556;28;20455;-58
2023/03/23 05:00:14;;;;;;;9.77;5.28;;;;;;;;;;4996046;28;20504;-54
2023/03/23 05:02:42;;;;;;;7.80;5.47;;;;;;;;;;5015118;28;20069;-54
2023/03/23 05:05:10;;;;;;;12.15;5.93;;;;;;;;;;5014681;28;20053;-57
2023/03/23 05:07:37;;;;;;;10.02;5.70;;;;;;;;;;5014756;28;20128;-56
2023/03/23 05:10:06;;;;;;;8.63;5.55;;;;;;;;;;5014471;28;20077;-58
2023/03/23 05:12:33;;;;;;;10.02;5.97;;;;;;;;;;5014467;28;20136;-59
2023/03/23 05:14:59;;;;;;;9.55;5.47;;;;;;;;;;5014700;28;20042;-59
2023/03/23 05:17:26;;;;;;;10.25;6.00;;;;;;;;;;5014528;28;20046;-56
2023/03/23 05:19:56;;;;;;;8.63;4.80;;;;;;;;;;5014325;28;20518;-58
2023/03/23 05:22:23;;;;;;;9.20;5.20;;;;;;;;;;5014472;28;20410;-58
2023/03/23 05:24:51;;;;;;;8.00;5.35;;;;;;;;;;5014613;28;20058;-56
2023/03/23 05:27:19;;;;;;;11.25;5.88;;;;;;;;;;5014328;28;20077;-60
2023/03/23 05:29:48;;;;;;;9.52;5.78;;;;;;;;;;5014267;28;20136;-58
2023/03/23 05:32:18;;;;;;;11.27;6.70;;;;;;;;;;5014349;28;20384;-58
2023/03/23 05:34:46;;;;;;;8.52;5.13;;;;;;;;;;5014514;28;20046;-57
2023/03/23 05:37:14;;;;;;;9.88;6.05;;;;;;;;;;5013899;28;20060;-58
2023/03/23 05:39:41;;;;;;;10.10;5.53;;;;;;;;;;5014149;28;20120;-56
2023/03/23 05:42:08;;;;;;;8.95;5.22;;;;;;;;;;5013862;28;20058;-57
2023/03/23 05:44:35;;;;;;;7.32;4.50;;;;;;;;;;5014050;28;20081;-55
2023/03/23 05:47:03;;;;;;;9.48;5.03;;;;;;;;;;5013933;28;20046;-54
2023/03/23 05:49:29;;;;;;;10.60;5.85;;;;;;;;;;5014114;28;20080;-58
2023/03/23 05:51:56;;;;;;;9.52;6.18;;;;;;;;;;5013924;28;20096;-59
2023/03/23 05:54:25;;;;;;;7.72;4.07;;;;;;;;;;5013861;28;20049;-57
2023/03/23 05:56:52;;;;;;;8.15;3.30;;;;;;;;;;5014093;28;20057;-58
2023/03/23 05:59:19;;;;;;;7.28;3.60;;;;;;;;;;5013243;28;20057;-55
2023/03/23 06:01:46;;;;;;;5.70;2.97;;;;;;;;;;5013141;28;20054;-57
2023/03/23 06:04:13;;;;;;;6.85;3.45;;;;;;;;;;5013485;28;20057;-60
2023/03/23 06:06:41;;;;;;;8.13;3.33;;;;;;;;;;5013914;28;20062;-56
2023/03/23 06:09:08;;;;;;;7.07;3.42;;;;;;;;;;5013751;28;20054;-58
2023/03/23 06:11:36;;;;;;;8.05;4.05;;;;;;;;;;5013398;28;20045;-59
2023/03/23 06:14:04;;;;;;;9.63;4.30;;;;;;;;;;5013541;28;20045;-54
2023/03/23 06:16:31;;;;;;;8.05;3.70;;;;;;;;;;5013498;28;20104;-57
2023/03/23 06:19:00;;;;;;;6.85;3.63;;;;;;;;;;5013438;28;20053;-57
2023/03/23 06:21:27;;;;;;;8.35;4.00;;;;;;;;;;5013577;28;20056;-54
2023/03/23 06:23:55;;;;;;;6.35;3.65;;;;;;;;;;5013325;28;20064;-56
2023/03/23 06:26:26;;;;;;;8.15;3.55;;;;;;;;;;5013632;28;20124;-60
2023/03/23 06:28:55;;;;;;;9.45;4.70;;;;;;;;;;5013191;28;20057;-59
2023/03/23 06:31:23;;;;;;;7.07;3.92;;;;;;;;;;5012887;28;20057;-59
2023/03/23 06:33:50;;;;;;;8.02;4.97;;;;;;;;;;5013013;28;20056;-59
2023/03/23 06:36:17;;;;;;;6.65;3.90;;;;;;;;;;5013091;28;20049;-58
2023/03/23 06:38:44;;;;;;;9.40;5.22;;;;;;;;;;5013259;28;20061;-60
2023/03/23 06:41:12;;;;;;;12.63;5.28;;;;;;;;;;5012494;28;20495;-60
2023/03/23 06:43:39;;;;;;;10.35;4.70;;;;;;;;;;5013186;28;20415;-56
2023/03/23 06:46:08;;;;;;;7.90;4.70;;;;;;;;;;5012936;28;20045;-58
2023/03/23 06:48:34;;;;;;;6.88;3.95;;;;;;;;;;5012651;28;20054;-55
2023/03/23 06:51:02;;;;;;;6.47;3.55;;;;;;;;;;5012403;28;20050;-56
2023/03/23 06:53:29;;;;;;;9.57;3.83;;;;;;;;;;5012498;28;20042;-57
2023/03/23 06:55:56;;;;;;;7.32;4.03;;;;;;;;;;5012675;28;20092;-57
2023/03/23 06:58:23;;;;;;;6.63;3.90;;;;;;;;;;5012504;28;20419;-58
2023/03/23 07:00:55;;;;;;;7.03;3.80;;;;;;;;;;5012148;28;20046;-58
2023/03/23 07:03:23;;;;;;;7.55;3.80;;;;;;;;;;5012441;28;20046;-58
2023/03/23 07:05:50;;;;;;;10.43;4.22;;;;;;;;;;5012618;28;20042;-56
2023/03/23 07:08:17;;;;;;;5.68;3.55;;;;;;;;;;5012412;28;20050;-55
2023/03/23 07:10:43;;;;;;;7.60;4.45;;;;;;;;;;5012350;28;20369;-58
2023/03/23 07:13:11;;;;;;;7.38;3.60;;;;;;;;;;5012030;28;20050;-54
2023/03/23 07:15:37;;;;;;;8.98;4.43;;;;;;;;;;5012419;28;20073;-55
2023/03/23 07:18:04;;;;;;;8.73;3.88;;;;;;;;;;5012434;28;20081;-58
2023/03/23 07:20:33;;;;;;;7.38;3.90;;;;;;;;;;5012116;28;20057;-57
2023/03/23 07:23:01;;;;;;;8.77;4.55;;;;;;;;;;5012361;28;20068;-57
2023/03/23 07:25:28;;;;;;;7.35;3.75;;;;;;;;;;5012219;28;20050;-53
2023/03/23 07:27:55;;;;;;;5.97;3.40;;;;;;;;;;5012170;28;20215;-56
2023/03/23 07:30:22;;;;;;;6.60;3.95;;;;;;;;;;5012338;28;20053;-58
2023/03/23 07:32:49;;;;;;;7.43;4.60;;;;;;;;;;5012138;28;20046;-57
2023/03/23 07:35:16;;;;;;;6.68;3.60;;;;;;;;;;5012383;28;20049;-59
2023/03/23 07:37:45;;;;;;;6.15;3.53;;;;;;;;;;5011482;28;20049;-58
2023/03/23 07:40:15;;;;;;;9.43;3.50;;;;;;;;;;5011904;28;20042;-57
2023/03/23 07:42:43;;;;;;;10.13;3.53;;;;;;;;;;5012023;28;20050;-55
2023/03/23 07:45:11;;;;;;;7.35;3.80;;;;;;;;;;5012085;28;20049;-56
2023/03/23 07:47:38;;;;;;;10.63;3.50;;;;;;;;;;5012123;28;20085;-57
2023/03/23 07:50:06;;;;;;;5.43;3.33;;;;;;;;;;5012071;28;20046;-55
2023/03/23 07:52:33;;;;;;;7.28;3.90;;;;;;;;;;5011804;28;20116;-55
2023/03/23 07:55:02;;;;;;;6.60;3.78;;;;;;;;;;5012167;28;20046;-57
2023/03/23 07:57:30;;;;;;;6.82;3.58;;;;;;;;;;5011842;28;20121;-59
2023/03/23 07:59:57;;;;;;;10.48;4.00;;;;;;;;;;5011973;28;20143;-59
2023/03/23 08:02:24;;;;;;;9.73;3.83;;;;;;;;;;5011581;28;20046;-56
2023/03/23 08:04:53;;;;;;;7.32;3.78;;;;;;;;;;5010721;28;20057;-57
2023/03/23 08:07:20;;;;;;;6.80;3.30;;;;;;;;;;5011781;28;20050;-60
2023/03/23 08:09:47;;;;;;;6.82;3.60;;;;;;;;;;5011756;28;20106;-58
2023/03/23 08:12:16;;;;;;;7.47;3.67;;;;;;;;;;5011699;28;20100;-50
2023/03/23 08:14:43;;;;;;;5.65;3.22;;;;;;;;;;5011974;28;20479;-61
2023/03/23 08:17:10;;;;;;;7.88;3.72;;;;;;;;;;5011829;28;20046;-66
2023/03/23 08:19:37;;;;;;;7.18;3.60;;;;;;;;;;5011547;28;20058;-55
2023/03/23 08:22:04;;;;;;;6.72;3.45;;;;;;;;;;5011447;28;20112;-69
2023/03/23 08:24:32;;;;;;;7.50;3.17;;;;;;;;;;5015240;28;20041;-53
2023/03/23 08:26:59;;;;;;;7.93;3.83;;;;;;;;;;5011560;28;20583;-59
2023/03/23 08:29:28;;;;;;;7.05;3.40;;;;;;;;;;5013008;28;20060;-59
2023/03/23 08:31:55;;;;;;;7.45;4.13;;;;;;;;;;5012830;28;20141;-59
2023/03/23 08:34:22;;;;;;;8.98;3.15;;;;;;;;;;5012843;28;20057;-58
2023/03/23 08:36:51;;;;;;;6.03;3.42;;;;;;;;;;5012872;28;20415;-58
2023/03/23 08:39:18;;;;;;;7.78;3.63;;;;;;;;;;5011911;28;20096;-58
2023/03/23 08:41:45;;;;;;;12.45;4.53;;;;;;;;;;5012504;28;20155;-57
2023/03/23 08:44:12;;;;;;;7.53;4.47;;;;;;;;;;5012852;28;20050;-56
2023/03/23 08:46:40;;;;;;;8.38;3.92;;;;;;;;;;5006110;28;20057;-60
2023/03/23 08:49:08;;;;;;;6.03;3.47;;;;;;;;;;5012636;28;20738;-59
2023/03/23 08:51:35;;;;;;;7.07;3.65;;;;;;;;;;5012477;28;20100;-58
2023/03/23 08:54:02;;;;;;;8.85;3.88;;;;;;;;;;5012610;28;20056;-58
2023/03/23 08:56:29;;;;;;;8.88;3.72;;;;;;;;;;5012866;28;20057;-55
2023/03/23 08:58:56;;;;;;;6.82;4.00;;;;;;;;;;5012405;28;20046;-58
2023/03/23 09:01:24;;;;;;;11.05;4.85;;;;;;;;;;5011627;28;20564;-58
2023/03/23 09:03:52;;;;;;;9.50;4.90;;;;;;;;;;5006061;28;20053;-57
2023/03/23 09:06:19;;;;;;;7.63;4.00;;;;;;;;;;5012660;28;20054;-53
2023/03/23 09:08:46;;;;;;;9.20;4.15;;;;;;;;;;5010889;28;20108;-55
2023/03/23 09:11:13;;;;;;;13.95;4.03;;;;;;;;;;5011136;28;20116;-51
2023/03/23 09:13:40;;;;;;;5.72;3.13;;;;;;;;;;5011061;28;20096;-55
2023/03/23 09:16:09;;;;;;;5.60;2.97;;;;;;;;;;5011881;28;20085;-55
2023/03/23 09:18:36;;;;;;;7.30;3.50;;;;;;;;;;5011815;28;20056;-51
2023/03/23 09:21:05;;;;;;;6.22;3.35;;;;;;;;;;5011866;28;20543;-52
2023/03/23 09:23:33;;;;;;;5.65;3.17;;;;;;;;;;5005004;28;20077;-55
2023/03/23 09:26:01;;;;;;;5.43;3.08;;;;;;;;;;5012105;28;20573;-54
2023/03/23 09:28:29;;;;;;;7.47;3.15;;;;;;;;;;5012145;28;20451;-52
2023/03/23 09:30:58;;;;;;;6.60;3.20;;;;;;;;;;5012143;28;20057;-55
2023/03/23 09:33:26;;;;;;;5.85;3.10;;;;;;;;;;5011993;28;20137;-54
2023/03/23 09:35:53;;;;;;;5.90;2.72;;;;;;;;;;5011357;28;20052;-54
2023/03/23 09:38:21;;;;;;;4.63;2.85;;;;;;;;;;5011880;28;20137;-50
2023/03/23 09:40:50;;;;;;;5.90;2.53;;;;;;;;;;5008561;28;20426;-55
2023/03/23 09:43:36;;;;;;;5.35;2.80;;;;;;;;;;5011674;28;20129;-51
2023/03/23 09:46:16;;;;;;;6.03;3.00;;;;;;;;;;5006590;28;20050;-53
2023/03/23 09:48:50;;;;;;;6.60;3.25;;;;;;;;;;5012151;28;20522;-50
2023/03/23 09:51:28;;;;;;;6.82;3.13;;;;;;;;;;5011672;28;20459;-55
2023/03/23 09:54:02;;;;;;;7.97;3.35;;;;;;;;;;5011645;28;20125;-54
2023/03/23 09:56:32;;;;;;;6.05;3.35;;;;;;;;;;5011519;28;20129;-56
2023/03/23 09:59:06;;;;;;;6.28;3.35;;;;;;;;;;5011648;28;20272;-52
2023/03/23 10:01:37;;;;;;;6.40;3.65;;;;;;;;;;5011534;28;20054;-51
2023/03/23 10:04:11;;;;;;;5.75;3.22;;;;;;;;;;5010544;28;20050;-53
2023/03/23 10:06:38;;;;;;;6.80;4.22;;;;;;;;;;5011627;28;20141;-55
2023/03/23 10:09:07;;;;;;;6.20;3.50;;;;;;;;;;4995510;28;20054;-54
2023/03/23 10:11:43;;;;;;;10.18;3.60;;;;;;;;;;5004586;28;20053;-55
2023/03/23 10:14:32;;;;;;;5.95;3.13;;;;;;;;;;5011282;28;20115;-55
2023/03/23 10:17:09;;;;;;;5.82;3.35;;;;;;;;;;5006218;28;20065;-54
2023/03/23 10:19:41;;;;;;;6.53;3.03;;;;;;;;;;5010478;28;20454;-53
2023/03/23 10:22:11;;;;;;;4.60;2.95;;;;;;;;;;5010897;28;20069;-55
2023/03/23 10:24:44;;;;;;;7.97;3.47;;;;;;;;;;5010706;28;20404;-53
2023/03/23 10:27:24;;;;;;;5.57;3.20;;;;;;;;;;5011160;28;20069;-53
2023/03/23 10:29:55;;;;;;;6.75;4.18;;;;;;;;;;5010644;28;20117;-52
2023/03/23 10:32:40;;;;;;;7.65;3.30;;;;;;;;;;5010827;28;20049;-56
2023/03/23 10:35:14;;;;;;;5.60;3.05;;;;;;;;;;5010627;28;20042;-54
2023/03/23 10:37:45;;;;;;;8.55;3.58;;;;;;;;;;5011043;28;20058;-52
2023/03/23 10:40:18;;;;;;;5.20;3.03;;;;;;;;;;5010241;28;20058;-55
2023/03/23 10:42:45;;;;;;;5.93;2.90;;;;;;;;;;5010538;28;20046;-53
2023/03/23 10:45:18;;;;;;;5.82;2.97;;;;;;;;;;5010547;28;20050;-55
2023/03/23 10:47:59;;;;;;;5.55;3.35;;;;;;;;;;5010640;28;20125;-54
2023/03/23 10:50:33;;;;;;;4.95;2.63;;;;;;;;;;5010630;28;20472;-54
2023/03/23 10:53:02;;;;;;;7.22;3.65;;;;;;;;;;5010445;28;20042;-53
2023/03/23 10:55:39;;;;;;;7.80;3.53;;;;;;;;;;5010757;28;20103;-53
2023/03/23 10:58:07;;;;;;;5.85;3.17;;;;;;;;;;5007053;28;20488;-55
2023/03/23 11:00:41;;;;;;;5.95;3.30;;;;;;;;;;5004212;28;20046;-56
2023/03/23 11:03:25;;;;;;;4.68;2.97;;;;;;;;;;5010415;28;20054;-55
2023/03/23 11:05:57;;;;;;;7.18;3.70;;;;;;;;;;5009775;28;20056;-57
2023/03/23 11:08:26;;;;;;;5.78;3.50;;;;;;;;;;5009987;28;20627;-67
2023/03/23 11:10:57;;;;;;;6.72;3.80;;;;;;;;;;5005599;28;20077;-60
2023/03/23 11:13:32;;;;;;;7.65;3.30;;;;;;;;;;5010073;28;20041;-56
2023/03/23 11:16:01;;;;;;;6.47;3.20;;;;;;;;;;5002458;28;20111;-62
2023/03/23 11:18:37;;;;;;;6.45;3.53;;;;;;;;;;5006099;28;20046;-64
2023/03/23 11:21:05;;;;;;;7.28;4.63;;;;;;;;;;5008968;28;20443;-72
2023/03/23 11:23:36;;;;;;;7.03;3.97;;;;;;;;;;5010090;28;20510;-68
2023/03/23 11:26:09;;;;;;;;;;;;;;;;;;5010349;28;20654;-56
2023/03/23 11:28:38;;;;;;;6.97;4.30;;;;;;;;;;5008377;28;20305;-70
2023/03/23 11:31:07;;;;;;;6.78;3.60;;;;;;;;;;5010148;28;20054;-60
2023/03/23 11:33:40;;;;;;;7.70;3.67;;;;;;;;;;5008791;28;20046;-57
2023/03/23 11:36:08;;;;;;;6.00;3.75;;;;;;;;;;5010426;28;20061;-65
2023/03/23 11:38:36;;;;;;;8.40;4.03;;;;;;;;;;5009423;28;20049;-55
2023/03/23 11:41:12;;;;;;;6.82;3.72;;;;;;;;;;5010063;28;20045;-65
2023/03/23 11:43:46;;;;;;;5.75;3.63;;;;;;;;;;5009986;28;20081;-67
2023/03/23 11:46:22;;;;;;;8.23;3.72;;;;;;;;;;5009053;28;20387;-66
2023/03/23 11:48:54;;;;;;;6.88;3.72;;;;;;;;;;5004037;28;20523;-56
2023/03/23 11:51:27;;;;;;;6.90;3.70;;;;;;;;;;5000539;28;20050;-61
2023/03/23 11:54:00;;;;;;;9.13;3.70;;;;;;;;;;5004084;28;20096;-67
2023/03/23 11:56:31;;;;;;;8.05;3.75;;;;;;;;;;5004218;28;20312;-71
2023/03/23 11:58:59;;;;;;;7.40;3.67;;;;;;;;;;5008781;28;20104;-59
2023/03/23 12:01:52;;;;;;;6.70;3.72;;;;;;;;;;5007074;28;20133;-54
2023/03/23 12:04:41;;;;;;;5.85;3.60;;;;;;;;;;5010910;28;20060;-57
2023/03/23 12:07:20;;;;;;;8.93;4.15;;;;;;;;;;5003969;28;20072;-58
2023/03/23 12:09:56;;;;;;;8.23;4.63;;;;;;;;;;5009200;28;20054;-57
2023/03/23 12:12:33;;;;;;;7.47;4.05;;;;;;;;;;5010964;28;20092;-54
2023/03/23 12:15:08;;;;;;;8.68;3.95;;;;;;;;;;5011577;28;20357;-59
2023/03/23 12:17:49;;;;;;;8.23;3.70;;;;;;;;;;5013011;28;20145;-57
2023/03/23 12:20:21;;;;;;;;;;;;;;;;;;5011023;28;20081;-56
2023/03/23 12:22:58;;;;;;;8.73;4.32;;;;;;;;;;5012403;28;20366;-58
2023/03/23 12:25:45;;;;;;;7.20;3.83;;;;;;;;;;5012950;28;20060;-57
2023/03/23 12:28:23;;;;;;;8.65;4.25;;;;;;;;;;5011554;28;20096;-58
2023/03/23 12:30:56;;;;;;;7.18;3.97;;;;;;;;;;5005982;28;20141;-54
2023/03/23 12:33:34;;;;;;;7.22;4.20;;;;;;;;;;5013144;28;20056;-61
2023/03/23 12:36:14;;;;;;;8.23;4.35;;;;;;;;;;5009239;28;20082;-55
2023/03/23 12:39:09;;;;;;;8.85;4.47;;;;;;;;;;5006916;28;20077;-57
2023/03/23 12:41:42;;;;;;;7.03;3.78;;;;;;;;;;5010303;28;20053;-57
2023/03/23 12:44:14;;;;;;;7.22;3.78;;;;;;;;;;5012168;28;20705;-58
2023/03/23 12:46:51;;;;;;;7.18;3.88;;;;;;;;;;5012312;28;20492;-58
2023/03/23 12:49:22;;;;;;;5.90;3.30;;;;;;;;;;5012322;28;20045;-56
2023/03/23 12:51:55;;;;;;;6.10;3.30;;;;;;;;;;5011852;28;20050;-55
2023/03/23 12:54:31;;;;;;;6.25;3.30;;;;;;;;;;5008664;28;20046;-57
2023/03/23 12:57:05;;;;;;;5.85;3.20;;;;;;;;;;5012309;28;20093;-55
2023/03/23 12:59:40;;;;;;;8.35;4.15;;;;;;;;;;5008903;28;20057;-56
2023/03/23 13:02:15;;;;;;;6.65;3.50;;;;;;;;;;5005938;28;20042;-56
2023/03/23 13:04:46;;;;;;;7.05;3.33;;;;;;;;;;5011339;28;20058;-56
2023/03/23 13:07:17;;;;;;;5.38;3.17;;;;;;;;;;5008612;28;20053;-54
2023/03/23 13:09:53;;;;;;;5.65;3.22;;;;;;;;;;5010469;28;20042;-56
2023/03/23 13:12:20;;;;;;;7.38;4.00;;;;;;;;;;5004216;28;20141;-55
2023/03/23 13:14:59;;;;;;;6.40;2.80;;;;;;;;;;5007004;28;20050;-56
2023/03/23 13:17:36;;;;;;;7.03;2.60;;;;;;;;;;5005026;28;20511;-55
2023/03/23 13:20:24;;;;;;;5.43;2.47;;;;;;;;;;5011896;28;20053;-53
2023/03/23 13:22:56;;;;;;;6.72;2.88;;;;;;;;;;5011617;28;20054;-56
2023/03/23 13:25:33;;;;;;;6.45;3.20;;;;;;;;;;5010985;28;20125;-56
2023/03/23 13:28:01;;;;;;;4.85;3.03;;;;;;;;;;5007907;28;20050;-56
2023/03/23 13:30:30;;;;;;;5.60;2.90;;;;;;;;;;5006127;28;20543;-56
2023/03/23 13:33:04;;;;;;;7.93;2.67;;;;;;;;;;5007315;28;20048;-56
2023/03/23 13:35:37;;;;;;;5.15;2.40;;;;;;;;;;5010319;28;20089;-55
2023/03/23 13:38:15;;;;;;;5.65;3.03;;;;;;;;;;5011656;28;20125;-52
2023/03/23 13:40:44;;;;;;;6.18;2.75;;;;;;;;;;5009242;28;20116;-52
2023/03/23 13:43:12;;;;;;;5.78;2.53;;;;;;;;;;5003339;28;20113;-53
2023/03/23 13:45:47;;;;;;;4.70;2.70;;;;;;;;;;5004296;28;20426;-59
2023/03/23 13:48:22;;;;;;;6.13;2.40;;;;;;;;;;5008395;28;20049;-55
2023/03/23 13:50:57;;;;;;;5.18;3.00;;;;;;;;;;5007017;28;20059;-53
2023/03/23 13:53:32;;;;;;;7.25;3.00;;;;;;;;;;5004210;28;20104;-57
2023/03/23 13:56:09;;;;;;;6.30;2.72;;;;;;;;;;5011206;28;20045;-51
2023/03/23 13:58:47;;;;;;;7.63;2.60;;;;;;;;;;5002271;28;20061;-56
2023/03/23 14:01:18;;;;;;;4.65;2.40;;;;;;;;;;5004732;28;20042;-57
2023/03/23 14:03:50;;;;;;;4.32;2.40;;;;;;;;;;5002521;28;20050;-55
2023/03/23 14:06:20;;;;;;;6.40;3.17;;;;;;;;;;5004075;28;20054;-54
2023/03/23 14:08:51;;;;;;;7.35;2.90;;;;;;;;;;5007310;28;20429;-57
2023/03/23 14:11:21;;;;;;;4.75;2.60;;;;;;;;;;5010981;28;20042;-56
2023/03/23 14:13:52;;;;;;;;;;;;;;;;;;5010775;28;20522;-53
2023/03/23 14:16:22;;;;;;;5.90;2.50;;;;;;;;;;5002643;28;19925;-52
2023/03/23 14:18:52;;;;;;;;;;;;;;;;;;5010833;28;20346;-58
2023/03/23 14:21:25;;;;;;;6.63;2.55;;;;;;;;;;5010135;28;19922;-57
2023/03/23 14:23:54;;;;;;;6.82;2.50;;;;;;;;;;5007976;28;20050;-57
2023/03/23 14:26:22;;;;;;;5.53;2.40;;;;;;;;;;5008183;28;20301;-56
2023/03/23 14:28:52;;;;;;;4.00;2.05;;;;;;;;;;5000652;28;20054;-57
2023/03/23 14:31:23;;;;;;;5.47;2.33;;;;;;;;;;5010837;28;20061;-57
2023/03/23 14:33:51;;;;;;;4.78;2.30;;;;;;;;;;5007853;28;20053;-58
2023/03/23 14:36:22;;;;;;;7.55;2.33;;;;;;;;;;5006570;28;20501;-57
2023/03/23 14:38:56;;;;;;;6.10;2.35;;;;;;;;;;5004935;28;20092;-56
2023/03/23 14:41:24;;;;;;;5.00;2.35;;;;;;;;;;5006217;28;20431;-56
2023/03/23 14:43:51;;;;;;;4.80;2.45;;;;;;;;;;5010172;28;20129;-55
2023/03/23 14:46:20;;;;;;;5.47;2.40;;;;;;;;;;5007333;28;20042;-56
2023/03/23 14:48:47;;;;;;;4.38;2.40;;;;;;;;;;5009654;28;20053;-57
2023/03/23 14:51:20;;;;;;;4.72;2.03;;;;;;;;;;5009976;28;20434;-56
2023/03/23 14:53:47;;;;;;;3.80;2.17;;;;;;;;;;5009941;28;20534;-57
2023/03/23 14:56:16;;;;;;;4.30;2.22;;;;;;;;;;5010211;28;20042;-53
2023/03/23 14:58:45;;;;;;;4.97;2.70;;;;;;;;;;5008119;28;20491;-54
2023/03/23 15:01:18;;;;;;;5.20;2.30;;;;;;;;;;5009187;28;20053;-58
2023/03/23 15:03:52;;;;;;;6.30;4.43;;;;;;;;;;5009566;28;20046;-57